createdAt,value
2017-06-13T00:02:22.992Z,17.10
2017-06-13T00:04:50.443Z,17.10
2017-06-13T00:07:17.902Z,17.10
2017-06-13T00:09:45.390Z,17.00
2017-06-13T00:12:13.614Z,16.90
2017-06-13T00:14:41.070Z,16.80
2017-06-13T00:17:08.513Z,16.80
2017-06-13T00:19:35.965Z,16.70
2017-06-13T00:22:03.457Z,16.50
2017-06-13T00:24:30.918Z,16.60
2017-06-13T00:26:58.386Z,16.60
2017-06-13T00:29:26.192Z,16.70
2017-06-13T00:31:53.659Z,16.60
2017-06-13T00:34:21.111Z,16.60
2017-06-13T00:36:48.582Z,16.60
2017-06-13T00:39:16.062Z,16.50
2017-06-13T00:41:43.513Z,16.60
2017-06-13T00:44:10.967Z,16.60
2017-06-13T00:46:38.457Z,16.60
2017-06-13T00:49:05.906Z,16.50
2017-06-13T00:51:33.389Z,16.50
2017-06-13T00:54:01.618Z,16.50
2017-06-13T00:56:29.104Z,16.50
2017-06-13T00:58:56.577Z,16.50
2017-06-13T01:01:25.618Z,16.40
2017-06-13T01:03:53.081Z,16.40
2017-06-13T01:06:20.546Z,16.40
2017-06-13T01:08:48.013Z,16.30
2017-06-13T01:11:15.478Z,16.30
2017-06-13T01:13:42.938Z,16.20
2017-06-13T01:16:10.401Z,16.10
2017-06-13T01:18:38.625Z,16.20
2017-06-13T01:21:06.084Z,16.20
2017-06-13T01:23:33.555Z,16.10
2017-06-13T01:26:00.998Z,16.10
2017-06-13T01:28:28.449Z,16.20
2017-06-13T01:30:55.919Z,16.30
2017-06-13T01:33:23.374Z,16.20
2017-06-13T01:35:50.830Z,16.20
2017-06-13T01:38:18.307Z,16.20
2017-06-13T01:40:45.766Z,16.20
2017-06-13T01:43:13.227Z,16.20
2017-06-13T01:45:40.673Z,16.00
2017-06-13T01:48:08.159Z,16.00
2017-06-13T01:50:35.620Z,16.00
2017-06-13T01:53:03.074Z,16.00
2017-06-13T01:55:30.542Z,16.00
2017-06-13T01:57:58.789Z,15.90
2017-06-13T02:00:26.312Z,15.90
2017-06-13T02:02:53.753Z,15.80
2017-06-13T02:05:21.524Z,15.80
2017-06-13T02:07:48.969Z,15.80
2017-06-13T02:10:16.433Z,15.80
2017-06-13T02:12:43.881Z,15.70
2017-06-13T02:15:12.101Z,15.60
2017-06-13T02:17:39.559Z,15.50
2017-06-13T02:20:07.029Z,15.60
2017-06-13T02:22:34.494Z,15.40
2017-06-13T02:25:01.968Z,15.10
2017-06-13T02:27:29.417Z,15.10
2017-06-13T02:29:56.888Z,15.30
2017-06-13T02:32:25.102Z,15.50
2017-06-13T02:34:52.657Z,15.40
2017-06-13T02:37:20.106Z,15.50
2017-06-13T02:39:47.577Z,15.40
2017-06-13T02:42:15.055Z,15.30
2017-06-13T02:44:42.511Z,15.40
2017-06-13T02:47:09.965Z,15.40
2017-06-13T02:49:37.413Z,15.40
2017-06-13T02:52:04.874Z,15.40
2017-06-13T02:54:32.328Z,15.40
2017-06-13T02:56:59.785Z,15.40
2017-06-13T02:59:27.281Z,15.40
2017-06-13T03:01:54.731Z,15.40
2017-06-13T03:04:22.181Z,15.40
2017-06-13T03:06:49.642Z,15.30
2017-06-13T03:09:31.992Z,15.30
2017-06-13T03:11:59.444Z,15.30
2017-06-13T03:14:26.905Z,15.30
2017-06-13T03:16:54.362Z,15.40
2017-06-13T03:19:21.834Z,15.30
2017-06-13T03:21:49.297Z,15.30
2017-06-13T03:24:16.768Z,15.30
2017-06-13T03:26:44.226Z,15.20
2017-06-13T03:29:11.685Z,15.20
2017-06-13T03:31:39.131Z,15.20
2017-06-13T03:34:12.808Z,15.00
2017-06-13T03:36:40.270Z,15.00
2017-06-13T03:39:07.753Z,15.00
2017-06-13T03:41:35.195Z,14.90
2017-06-13T03:44:03.505Z,15.00
2017-06-13T03:46:30.947Z,15.00
2017-06-13T03:48:58.399Z,15.10
2017-06-13T03:51:25.869Z,15.10
2017-06-13T03:53:53.355Z,15.10
2017-06-13T03:56:20.830Z,15.00
2017-06-13T03:58:49.085Z,15.10
2017-06-13T04:01:16.654Z,15.00
2017-06-13T04:03:44.873Z,15.00
2017-06-13T04:06:12.321Z,15.00
2017-06-13T04:08:39.803Z,15.00
2017-06-13T04:11:07.253Z,15.10
2017-06-13T04:13:34.750Z,15.20
2017-06-13T04:16:02.198Z,15.20
2017-06-13T04:18:29.659Z,15.10
2017-06-13T04:20:57.162Z,15.20
2017-06-13T04:23:24.610Z,15.30
2017-06-13T04:25:52.069Z,15.30
2017-06-13T04:28:19.584Z,15.30
2017-06-13T04:30:47.291Z,15.30
2017-06-13T04:33:14.742Z,15.30
2017-06-13T04:35:42.976Z,15.50
2017-06-13T04:38:10.421Z,15.40
2017-06-13T04:40:37.893Z,15.50
2017-06-13T04:43:05.374Z,15.50
2017-06-13T04:45:33.610Z,15.80
2017-06-13T04:48:01.066Z,15.80
2017-06-13T04:50:28.516Z,15.80
2017-06-13T04:52:55.966Z,15.80
2017-06-13T04:55:23.418Z,15.90
2017-06-13T04:57:50.873Z,15.90
2017-06-13T05:00:18.315Z,16.00
2017-06-13T05:02:45.781Z,16.10
2017-06-13T05:05:14.933Z,16.20
2017-06-13T05:07:42.381Z,16.30
2017-06-13T05:10:09.836Z,16.40
2017-06-13T05:12:37.300Z,16.50
2017-06-13T05:15:04.753Z,16.30
2017-06-13T05:17:32.217Z,16.50
2017-06-13T05:19:59.669Z,16.40
2017-06-13T05:22:27.122Z,16.50
2017-06-13T05:24:54.571Z,16.40
2017-06-13T05:27:22.065Z,16.30
2017-06-13T05:29:50.285Z,16.60
2017-06-13T05:32:17.738Z,16.50
2017-06-13T05:34:45.195Z,16.60
2017-06-13T05:37:12.653Z,16.60
2017-06-13T05:39:40.132Z,17.00
2017-06-13T05:42:07.586Z,17.00
2017-06-13T05:44:35.045Z,17.10
2017-06-13T05:47:02.513Z,17.20
2017-06-13T05:49:29.965Z,17.30
2017-06-13T05:51:57.413Z,17.20
2017-06-13T05:54:24.883Z,17.30
2017-06-13T05:56:52.349Z,17.30
2017-06-13T05:59:19.814Z,17.50
2017-06-13T06:01:50.982Z,17.60
2017-06-13T06:04:18.475Z,17.70
2017-06-13T06:06:45.933Z,17.80
2017-06-13T06:09:13.398Z,18.00
2017-06-13T06:11:40.861Z,18.00
2017-06-13T06:14:08.314Z,18.00
2017-06-13T06:16:35.777Z,18.20
2017-06-13T06:19:03.251Z,18.20
2017-06-13T06:21:30.736Z,18.30
2017-06-13T06:23:58.958Z,18.30
2017-06-13T06:26:26.435Z,18.30
2017-06-13T06:28:53.894Z,18.50
2017-06-13T06:31:21.340Z,18.60
2017-06-13T06:33:48.791Z,18.70
2017-06-13T06:36:16.253Z,18.80
2017-06-13T06:38:43.724Z,18.80
2017-06-13T06:41:11.211Z,18.60
2017-06-13T06:43:39.433Z,18.60
2017-06-13T06:46:06.881Z,18.60
2017-06-13T06:48:34.353Z,18.80
2017-06-13T06:51:01.819Z,18.80
2017-06-13T06:53:29.298Z,18.50
2017-06-13T06:55:56.758Z,18.50
2017-06-13T06:58:24.220Z,18.70
2017-06-13T07:03:46.846Z,19.10
2017-06-13T07:06:14.305Z,19.10
2017-06-13T07:08:41.776Z,19.20
2017-06-13T07:11:09.226Z,19.20
2017-06-13T07:13:36.706Z,19.10
2017-06-13T07:16:04.168Z,19.30
2017-06-13T07:18:31.630Z,19.50
2017-06-13T07:20:59.846Z,19.40
2017-06-13T07:23:27.324Z,19.40
2017-06-13T07:25:54.782Z,19.50
2017-06-13T07:28:22.238Z,19.50
2017-06-13T07:30:49.689Z,19.60
2017-06-13T07:33:17.137Z,19.10
2017-06-13T07:35:44.596Z,19.20
2017-06-13T07:38:12.057Z,19.40
2017-06-13T07:40:39.518Z,19.60
2017-06-13T07:43:06.967Z,19.30
2017-06-13T07:45:34.469Z,19.30
2017-06-13T07:48:01.909Z,19.70
2017-06-13T07:50:29.355Z,19.90
2017-06-13T07:52:56.802Z,19.80
2017-06-13T07:55:24.304Z,19.80
2017-06-13T07:57:51.754Z,19.70
2017-06-13T08:00:20.006Z,19.60
2017-06-13T08:02:47.448Z,19.60
2017-06-13T08:05:15.043Z,19.90
2017-06-13T08:07:42.498Z,20.10
2017-06-13T08:10:09.967Z,20.30
2017-06-13T08:12:37.446Z,20.40
2017-06-13T08:15:04.919Z,20.60
2017-06-13T08:17:32.385Z,20.60
2017-06-13T08:19:59.837Z,20.70
2017-06-13T08:22:27.286Z,20.50
2017-06-13T08:24:54.750Z,20.50
2017-06-13T08:27:22.218Z,20.60
2017-06-13T08:29:49.682Z,20.80
2017-06-13T08:32:17.159Z,21.00
2017-06-13T08:34:44.742Z,21.00
2017-06-13T08:37:12.195Z,20.70
2017-06-13T08:39:39.658Z,20.90
2017-06-13T08:42:07.884Z,21.10
2017-06-13T08:44:35.386Z,21.10
2017-06-13T08:47:02.829Z,21.10
2017-06-13T08:49:30.290Z,21.40
2017-06-13T08:51:57.745Z,21.50
2017-06-13T08:54:25.194Z,21.50
2017-06-13T08:56:52.643Z,21.60
2017-06-13T08:59:20.109Z,21.60
2017-06-13T09:01:53.214Z,21.50
2017-06-13T09:04:20.677Z,21.60
2017-06-13T09:06:48.117Z,21.70
2017-06-13T09:09:15.586Z,21.80
2017-06-13T12:33:59.936Z,25.30
2017-06-13T12:36:27.420Z,25.30
2017-06-13T12:38:54.896Z,25.10
2017-06-13T12:41:22.376Z,24.90
2017-06-13T12:43:49.846Z,24.80
2017-06-13T12:46:18.154Z,24.70
2017-06-13T12:48:45.631Z,24.70
2017-06-13T12:51:13.117Z,24.60
2017-06-13T12:53:40.594Z,24.70
2017-06-13T12:56:08.829Z,24.80
2017-06-13T12:58:36.311Z,24.80
2017-06-13T13:01:03.793Z,24.90
2017-06-13T13:03:31.287Z,24.90
2017-06-13T13:05:58.768Z,24.90
2017-06-13T13:08:26.248Z,25.00
2017-06-13T13:10:54.374Z,24.90
2017-06-13T13:13:22.879Z,25.00
2017-06-13T13:15:50.345Z,24.90
2017-06-13T13:18:19.001Z,25.00
2017-06-13T13:20:53.722Z,24.90
2017-06-13T13:23:21.208Z,24.90
2017-06-13T13:25:48.692Z,24.90
2017-06-13T13:28:18.075Z,25.00
2017-06-13T13:30:45.574Z,24.90
2017-06-13T13:33:13.045Z,24.90
2017-06-13T13:35:40.567Z,25.00
2017-06-13T13:38:08.037Z,24.90
2017-06-13T13:40:36.280Z,25.10
2017-06-13T13:43:03.754Z,25.10
2017-06-13T13:45:31.247Z,25.20
2017-06-13T13:47:58.719Z,25.30
2017-06-13T13:53:18.324Z,25.10
2017-06-13T13:55:45.785Z,25.10
2017-06-13T13:58:13.233Z,25.10
2017-06-13T14:00:40.700Z,25.10
2017-06-13T14:03:08.150Z,25.20
2017-06-13T14:05:35.611Z,25.30
2017-06-13T14:08:03.057Z,25.20
2017-06-13T14:10:30.509Z,25.20
2017-06-13T14:12:57.962Z,25.10
2017-06-13T14:15:25.406Z,25.10
2017-06-13T14:17:52.863Z,25.00
2017-06-13T14:20:20.301Z,25.20
2017-06-13T14:22:48.522Z,25.20
2017-06-13T14:25:15.961Z,25.20
2017-06-13T14:27:43.409Z,25.20
2017-06-13T14:30:10.846Z,25.20
2017-06-13T14:32:39.076Z,25.20
2017-06-13T14:35:06.844Z,25.20
2017-06-13T14:37:34.290Z,25.30
2017-06-13T14:40:01.734Z,25.20
2017-06-13T14:42:29.217Z,25.10
2017-06-13T14:44:56.666Z,25.20
2017-06-13T14:47:24.118Z,25.20
2017-06-13T14:49:51.571Z,25.40
2017-06-13T14:52:19.021Z,25.50
2017-06-13T14:54:46.470Z,25.40
2017-06-13T14:57:13.929Z,25.40
2017-06-13T14:59:41.385Z,25.40
2017-06-13T15:02:08.845Z,25.40
2017-06-13T15:04:36.289Z,25.50
2017-06-13T15:07:03.734Z,25.50
2017-06-13T15:09:31.180Z,25.40
2017-06-13T15:11:59.394Z,25.10
2017-06-13T15:14:26.838Z,25.10
2017-06-13T15:16:54.286Z,25.00
2017-06-13T15:19:21.755Z,24.90
2017-06-13T15:21:49.252Z,24.90
2017-06-13T15:24:16.693Z,24.50
2017-06-13T15:26:44.154Z,24.60
2017-06-13T15:29:11.614Z,24.70
2017-06-13T15:31:39.058Z,24.60
2017-06-13T15:34:06.501Z,24.60
2017-06-13T15:36:33.957Z,24.50
2017-06-13T15:39:01.402Z,24.70
2017-06-13T15:41:28.845Z,24.70
2017-06-13T15:43:57.053Z,25.40
2017-06-13T15:46:24.501Z,25.40
2017-06-13T15:48:51.946Z,25.80
2017-06-13T15:51:19.406Z,26.20
2017-06-13T15:53:46.852Z,26.20
2017-06-13T15:56:14.316Z,26.10
2017-06-13T15:58:41.749Z,26.00
2017-06-13T16:01:09.990Z,25.70
2017-06-13T16:03:37.435Z,25.70
2017-06-13T16:06:04.879Z,25.70
2017-06-13T16:08:32.326Z,25.50
2017-06-13T16:10:59.786Z,25.50
2017-06-13T16:13:27.234Z,25.10
2017-06-13T16:15:54.684Z,25.20
2017-06-13T16:18:22.895Z,24.90
2017-06-13T16:20:50.336Z,24.90
2017-06-13T16:23:17.791Z,24.80
2017-06-13T16:25:45.230Z,24.60
2017-06-13T16:28:12.679Z,24.50
2017-06-13T16:30:40.897Z,24.30
2017-06-13T16:33:08.357Z,24.20
2017-06-13T16:35:35.814Z,24.40
2017-06-13T16:38:03.266Z,24.30
2017-06-13T16:40:30.712Z,24.30
2017-06-13T16:42:58.178Z,24.50
2017-06-13T16:45:25.624Z,24.70
2017-06-13T16:47:53.078Z,24.80
2017-06-13T16:50:20.531Z,24.60
2017-06-13T16:52:47.969Z,24.70
2017-06-13T16:55:16.193Z,24.50
2017-06-13T16:57:43.633Z,24.50
2017-06-13T17:00:11.085Z,24.50
2017-06-13T17:02:38.526Z,24.40
2017-06-13T17:05:05.982Z,24.30
2017-06-13T17:07:33.438Z,24.40
2017-06-13T17:10:00.905Z,25.50
2017-06-13T17:12:28.350Z,27.20
2017-06-13T17:14:55.802Z,28.60
2017-06-13T17:17:24.009Z,29.90
2017-06-13T17:19:51.471Z,29.90
2017-06-13T17:22:18.924Z,30.30
2017-06-13T17:24:46.365Z,31.10
2017-06-13T17:27:13.809Z,31.20
2017-06-13T17:29:41.260Z,31.50
2017-06-13T17:32:09.476Z,31.90
2017-06-13T17:34:36.926Z,31.90
2017-06-13T17:37:04.370Z,31.90
2017-06-13T17:39:31.809Z,32.10
2017-06-13T17:41:59.253Z,31.80
2017-06-13T17:44:27.462Z,31.30
2017-06-13T17:46:54.930Z,31.30
2017-06-13T17:49:22.390Z,30.40
2017-06-13T17:51:49.833Z,29.30
2017-06-13T17:54:17.310Z,28.20
2017-06-13T17:56:44.805Z,27.00
2017-06-13T17:59:12.249Z,26.20
2017-06-13T18:01:39.710Z,25.70
2017-06-13T18:04:07.150Z,25.30
2017-06-13T18:06:34.683Z,25.00
2017-06-13T18:09:02.171Z,24.70
2017-06-13T18:11:29.616Z,24.40
2017-06-13T18:13:57.277Z,24.20
2017-06-13T18:16:25.724Z,24.00
2017-06-13T18:18:53.187Z,23.80
2017-06-13T18:21:20.638Z,23.60
2017-06-13T18:23:48.113Z,23.40
2017-06-13T18:26:15.588Z,23.20
2017-06-13T18:28:43.063Z,23.00
2017-06-13T18:31:10.506Z,22.80
2017-06-13T18:33:37.975Z,22.70
2017-06-13T18:36:05.426Z,22.60
2017-06-13T18:38:32.908Z,22.50
2017-06-13T18:41:00.427Z,22.40
2017-06-13T18:43:27.893Z,22.40
2017-06-13T18:45:55.385Z,22.20
2017-06-13T18:51:16.548Z,22.10
2017-06-13T18:53:44.066Z,22.00
2017-06-13T18:56:11.504Z,21.90
2017-06-13T18:58:38.947Z,21.80
2017-06-13T19:01:06.394Z,21.80
2017-06-13T19:03:33.842Z,21.70
2017-06-13T19:06:01.294Z,21.50
2017-06-13T19:08:28.778Z,21.50
2017-06-13T19:10:56.419Z,21.30
2017-06-13T19:13:23.906Z,21.20
2017-06-13T19:15:51.433Z,21.10
2017-06-13T19:18:18.873Z,21.10
2017-06-13T19:20:46.397Z,21.00
2017-06-13T19:23:13.845Z,20.90
2017-06-13T19:25:41.299Z,20.80
2017-06-13T19:28:08.777Z,20.80
2017-06-13T19:30:36.213Z,20.70
2017-06-13T19:33:03.660Z,20.60
2017-06-13T19:35:31.193Z,20.60
2017-06-13T19:37:58.664Z,20.60
2017-06-13T19:40:32.139Z,20.60
2017-06-13T19:43:05.676Z,20.60
2017-06-13T19:45:33.201Z,20.40
2017-06-13T19:48:00.650Z,20.30
2017-06-13T19:50:28.225Z,20.30
2017-06-13T19:52:55.709Z,20.20
2017-06-13T19:55:23.149Z,20.20
2017-06-13T19:57:50.602Z,20.20
2017-06-13T20:00:18.053Z,20.20
2017-06-13T20:02:45.513Z,20.10
2017-06-13T20:05:12.970Z,20.10
2017-06-13T20:07:40.424Z,20.00
2017-06-13T20:10:07.880Z,19.90
2017-06-13T20:12:35.337Z,19.80
2017-06-13T20:15:02.781Z,19.70
2017-06-13T20:17:30.221Z,19.50
2017-06-13T20:19:58.433Z,19.50
2017-06-13T20:22:25.886Z,19.50
2017-06-13T20:24:53.341Z,19.60
2017-06-13T20:27:22.698Z,19.60
2017-06-13T20:29:50.145Z,19.60
2017-06-13T20:32:34.791Z,19.50
2017-06-13T20:35:22.519Z,19.50
2017-06-13T20:37:49.953Z,19.50
2017-06-13T20:40:17.413Z,19.50
2017-06-13T20:42:44.865Z,19.50
2017-06-13T20:45:12.330Z,19.50
2017-06-13T20:47:39.789Z,19.40
2017-06-13T20:50:07.233Z,19.40
2017-06-13T20:52:34.673Z,19.30
2017-06-13T20:55:02.135Z,19.30
2017-06-13T20:57:29.583Z,19.20
2017-06-13T20:59:57.051Z,19.10
2017-06-13T21:02:24.493Z,19.00
2017-06-13T21:04:52.702Z,19.00
2017-06-13T21:07:20.149Z,19.00
2017-06-13T21:09:47.589Z,19.10
2017-06-13T21:12:15.051Z,19.10
2017-06-13T21:14:42.485Z,19.00
2017-06-13T21:17:10.707Z,18.90
2017-06-13T21:19:38.160Z,18.90
2017-06-13T21:22:22.566Z,18.90
2017-06-13T21:24:50.005Z,18.70
2017-06-13T21:27:17.460Z,18.70
2017-06-13T21:29:44.905Z,18.80
2017-06-13T21:32:12.360Z,18.80
2017-06-13T21:34:39.805Z,18.80
2017-06-13T21:37:07.253Z,18.60
2017-06-13T21:39:34.702Z,18.50
2017-06-13T21:42:02.174Z,18.40
2017-06-13T21:44:29.621Z,18.30
2017-06-13T21:46:57.066Z,18.30
2017-06-13T21:49:24.512Z,18.40
2017-06-13T21:51:51.953Z,18.40
2017-06-13T21:54:20.173Z,18.40
2017-06-13T21:56:47.613Z,18.30
2017-06-13T21:59:15.073Z,18.40
2017-06-13T22:01:42.531Z,18.20
2017-06-13T22:04:09.981Z,18.30
2017-06-13T22:06:37.425Z,18.10
2017-06-13T22:09:05.661Z,18.10
2017-06-13T22:11:33.101Z,18.10
2017-06-13T22:14:00.540Z,18.10
2017-06-13T22:16:28.002Z,18.20
2017-06-13T22:18:55.441Z,18.30
2017-06-13T22:21:22.899Z,18.10
2017-06-13T22:23:50.347Z,18.20
2017-06-13T22:26:18.557Z,18.20
2017-06-13T22:28:46.016Z,18.20
2017-06-13T22:31:13.449Z,18.30
2017-06-13T22:33:40.898Z,18.20
2017-06-13T22:36:08.354Z,18.30
2017-06-13T22:38:35.798Z,18.30
2017-06-13T22:41:04.037Z,18.20
2017-06-13T22:43:31.477Z,18.20
2017-06-13T22:45:58.917Z,18.20
2017-06-13T22:48:26.414Z,18.30
2017-06-13T22:50:53.861Z,18.30
2017-06-13T22:53:21.300Z,18.20
2017-06-13T22:55:48.751Z,18.20
2017-06-13T22:58:16.203Z,18.10
2017-06-13T23:00:43.652Z,18.00
2017-06-13T23:03:11.107Z,18.00
2017-06-13T23:05:38.561Z,18.10
2017-06-13T23:08:06.022Z,18.10
2017-06-13T23:10:33.457Z,18.00
2017-06-13T23:13:01.670Z,17.60
2017-06-13T23:15:29.114Z,17.60
2017-06-13T23:17:56.565Z,17.70
2017-06-13T23:20:24.013Z,17.80
2017-06-13T23:22:51.457Z,17.70
2017-06-13T23:25:19.669Z,17.70
2017-06-13T23:27:47.117Z,17.70
2017-06-13T23:30:14.586Z,17.50
2017-06-13T23:32:42.040Z,17.40
2017-06-13T23:35:09.725Z,17.50
2017-06-13T23:37:37.185Z,17.60
2017-06-13T23:40:04.634Z,17.60
2017-06-13T23:42:32.075Z,17.70
2017-06-13T23:44:59.513Z,17.60
2017-06-13T23:47:26.966Z,17.50
2017-06-13T23:49:54.409Z,17.30
2017-06-13T23:52:22.621Z,17.30
2017-06-13T23:54:50.056Z,17.30
2017-06-13T23:57:17.505Z,17.40
2017-06-13T23:59:45.725Z,17.40
